Time;durP1;ratioP1;P1;durP2;ratioP2;P2;SDS_P1;SDS_P2;PMS_P1;PMS_P2;Temp;Humidity;BMP_temperature;BMP_pressure;BME280_temperature;BME280_humidity;BME280_pressure;Samples;Min_cycle;Max_cycle;Signal;HPM_P1;HPM_P2
2023/02/14 00:01:16;;;;;;;;;;;;;;;2.01;100.00;-18081.88;4987245;28;20394;-84
2023/02/14 00:03:42;;;;;;;;;;;;;;;1.97;100.00;-18080.63;4987887;28;20471;-84
2023/02/14 00:06:08;;;;;;;;;;;;;;;1.96;100.00;-18080.47;4986084;28;19929;-82
2023/02/14 00:08:33;;;;;;;;;;;;;;;1.95;100.00;-18080.19;4986118;28;20355;-82
2023/02/14 00:10:58;;;;;;;;;;;;;;;1.95;100.00;-18080.06;4991788;28;19921;-84
2023/02/14 00:13:24;;;;;;;;;;;;;;;1.93;100.00;-18079.50;4991957;28;19928;-83
2023/02/14 00:15:49;;;;;;;;;;;;;;;1.89;100.00;-18078.53;4992388;28;19922;-84
2023/02/14 00:18:14;;;;;;;;;;;;;;;1.83;100.00;-18076.88;4985695;28;19984;-84
2023/02/14 00:20:39;;;;;;;;;;;;;;;1.83;100.00;-18076.88;4983887;28;19981;-83
2023/02/14 00:23:04;;;;;;;;;;;;;;;1.82;100.00;-18076.47;4995425;28;20378;-83
2023/02/14 00:25:32;;;;;;;;;;;;;;;1.84;100.00;-18077.00;4992919;28;19949;-84
2023/02/14 00:27:57;;;;;;;;;;;;;;;1.80;100.00;-18076.19;4993716;28;19930;-83
2023/02/14 00:30:23;;;;;;;;;;;;;;;1.76;100.00;-18074.94;4992284;28;19929;-84
2023/02/14 00:32:48;;;;;;;;;;;;;;;1.73;100.00;-18074.25;4994725;28;19929;-82
2023/02/14 00:35:13;;;;;;;;;;;;;;;1.74;100.00;-18074.53;4994107;28;19929;-84
2023/02/14 00:37:38;;;;;;;;;;;;;;;1.75;100.00;-18074.81;4995729;28;19922;-82
2023/02/14 00:40:04;;;;;;;;;;;;;;;1.73;100.00;-18074.25;5002022;28;19921;-85
2023/02/14 00:42:30;;;;;;;;;;;;;;;1.71;100.00;-18073.56;4994342;28;20009;-84
2023/02/14 00:44:55;;;;;;;;;;;;;;;1.64;100.00;-18071.63;4988546;28;20423;-83
2023/02/14 00:47:20;;;;;;;;;;;;;;;1.63;100.00;-18071.47;4990763;28;19925;-84
2023/02/14 00:49:45;;;;;;;;;;;;;;;1.60;100.00;-18070.66;4989118;28;19984;-83
2023/02/14 00:52:10;;;;;;;;;;;;;;;1.62;100.00;-18071.06;4993132;28;19936;-83
2023/02/14 00:54:36;;;;;;;;;;;;;;;1.56;100.00;-18069.53;4991482;28;19958;-83
2023/02/14 00:57:01;;;;;;;;;;;;;;;1.54;100.00;-18069.13;4991513;28;20745;-82
2023/02/14 00:59:26;;;;;;;;;;;;;;;1.48;100.00;-18067.47;4996114;28;20302;-84
2023/02/14 01:01:51;;;;;;;;;;;;;;;1.51;100.00;-18068.31;4996480;28;19926;-83
2023/02/14 01:04:17;;;;;;;;;;;;;;;1.48;100.00;-18067.47;4994187;28;19981;-84
2023/02/14 01:06:43;;;;;;;;;;;;;;;1.50;100.00;-18067.88;5002723;28;20013;-83
2023/02/14 01:09:08;;;;;;;;;;;;;;;1.44;100.00;-18066.38;4997872;28;19932;-84
2023/02/14 01:11:34;;;;;;;;;;;;;;;1.41;100.00;-18065.53;4996446;28;19922;-83
2023/02/14 01:13:59;;;;;;;;;;;;;;;1.38;100.00;-18064.69;4990893;28;20154;-85
2023/02/14 01:16:25;;;;;;;;;;;;;;;1.32;100.00;-18063.19;4994889;28;20012;-84
2023/02/14 01:18:51;;;;;;;;;;;;;;;1.32;100.00;-18063.19;5005352;28;20375;-82
2023/02/14 01:21:24;;;;;;;;;;;;;;;1.32;100.00;-18063.19;4996911;28;19922;-83
2023/02/14 01:23:51;;;;;;;;;;;;;;;1.32;100.00;-18063.03;4997482;28;19922;-83
2023/02/14 01:26:16;;;;;;;;;;;;;;;1.28;100.00;-18061.94;5000785;28;19926;-84
2023/02/14 01:28:42;;;;;;;;;;;;;;;1.23;100.00;-18060.53;4996487;28;19990;-83
2023/02/14 01:31:12;;;;;;;;;;;;;;;1.25;100.00;-18061.09;4996157;28;19921;-85
2023/02/14 01:33:38;;;;;;;;;;;;;;;1.25;100.00;-18061.09;4994944;28;20438;-83
2023/02/14 01:36:03;;;;;;;;;;;;;;;1.23;100.00;-18060.53;4986718;28;20010;-84
2023/02/14 01:38:28;;;;;;;;;;;;;;;1.21;100.00;-18060.00;4990144;28;20307;-84
2023/02/14 01:40:54;;;;;;;;;;;;;;;1.13;100.00;-18057.91;4992486;28;20355;-84
2023/02/14 01:43:19;;;;;;;;;;;;;;;1.17;100.00;-18058.88;4996136;28;19961;-84
2023/02/14 01:45:44;;;;;;;;;;;;;;;1.11;100.00;-18057.50;4986525;28;19932;-83
2023/02/14 01:48:10;;;;;;;;;;;;;;;1.14;100.00;-18058.19;4994775;28;19918;-83
2023/02/14 01:50:38;;;;;;;;;;;;;;;1.17;100.00;-18059.03;4990792;28;19925;-83
2023/02/14 01:53:05;;;;;;;;;;;;;;;1.15;100.00;-18058.47;5002359;28;19933;-83
2023/02/14 01:55:35;;;;;;;;;;;;;;;1.12;100.00;-18057.78;4998597;28;19922;-83
2023/02/14 01:58:08;;;;;;;;;;;;;;;1.13;100.00;-18058.06;4991264;28;20411;-82
2023/02/14 02:03:18;;;;;;;;;;;;;;;1.04;100.00;-18055.44;5000119;28;19968;-83
2023/02/14 02:05:47;;;;;;;;;;;;;;;1.05;100.00;-18055.69;4990337;28;20334;-84
2023/02/14 02:08:12;;;;;;;;;;;;;;;1.02;100.00;-18054.88;4990131;28;19925;-83
2023/02/14 02:10:38;;;;;;;;;;;;;;;1.02;100.00;-18054.88;4991802;28;19922;-82
2023/02/14 02:13:05;;;;;;;;;;;;;;;1.00;100.00;-18054.31;4993348;28;19922;-85
2023/02/14 02:15:34;;;;;;;;;;;;;;;1.01;100.00;-18054.75;4991626;28;19957;-85
2023/02/14 02:18:20;;;;;;;;;;;;;;;1.01;100.00;-18054.75;4989898;28;19930;-83
2023/02/14 02:21:03;;;;;;;;;;;;;;;1.00;100.00;-18054.31;4990090;28;19922;-83
2023/02/14 02:23:37;;;;;;;;;;;;;;;0.97;100.00;-18053.63;4995063;28;20391;-84
2023/02/14 02:26:12;;;;;;;;;;;;;;;0.97;100.00;-18053.63;4990722;28;20029;-83
2023/02/14 02:29:00;;;;;;;;;;;;;;;0.95;100.00;-18052.94;4989725;28;19922;-83
2023/02/14 02:31:25;;;;;;;;;;;;;;;0.93;100.00;-18052.53;4976644;28;20379;-83
2023/02/14 02:34:11;;;;;;;;;;;;;;;0.94;100.00;-18052.78;4991555;28;19932;-83
2023/02/14 02:36:50;;;;;;;;;;;;;;;0.94;100.00;-18052.78;4978279;28;19926;-83
2023/02/14 02:39:21;;;;;;;;;;;;;;;0.95;100.00;-18053.06;4957584;28;20826;-84
2023/02/14 02:42:11;;;;;;;;;;;;;;;0.97;100.00;-18053.50;4996521;28;19949;-83
2023/02/14 02:44:55;;;;;;;;;;;;;;;0.94;100.00;-18052.78;4995570;28;20322;-84
2023/02/14 02:47:59;;;;;;;;;;;;;;;0.89;100.00;-18051.56;5008193;28;19956;-82
2023/02/14 02:53:25;;;;;;;;;;;;;;;0.92;100.00;-18052.09;4946183;28;20005;-84
2023/02/14 02:58:51;;;;;;;;;;;;;;;0.84;100.00;-18050.16;4993867;28;19971;-85
2023/02/14 03:01:22;;;;;;;;;;;;;;;0.88;100.00;-18051.13;4986552;28;19930;-84
2023/02/14 03:06:32;;;;;;;;;;;;;;;0.83;100.00;-18049.88;5000053;28;20291;-85
2023/02/14 03:09:08;;;;;;;;;;;;;;;0.84;100.00;-18050.03;4996557;28;19922;-85
2023/02/14 03:11:35;;;;;;;;;;;;;;;0.81;100.00;-18049.34;4992536;28;19921;-82
2023/02/14 03:14:00;;;;;;;;;;;;;;;0.79;100.00;-18048.78;4990727;28;20368;-84
2023/02/14 03:16:40;;;;;;;;;;;;;;;0.79;100.00;-18048.66;4997179;28;19936;-83
2023/02/14 03:19:29;;;;;;;;;;;;;;;0.80;100.00;-18048.91;4999066;28;20182;-83
2023/02/14 03:22:26;;;;;;;;;;;;;;;0.78;100.00;-18048.50;5005025;28;19918;-83
2023/02/14 03:24:56;;;;;;;;;;;;;;;0.79;100.00;-18048.78;4993874;28;19930;-83
2023/02/14 03:27:31;;;;;;;;;;;;;;;0.82;100.00;-18049.47;5008566;28;20032;-82
2023/02/14 03:30:01;;;;;;;;;;;;;;;0.88;100.00;-18051.28;5011155;28;19926;-82
2023/02/14 03:32:26;;;;;;;;;;;;;;;0.85;100.00;-18050.31;5004892;28;20044;-83
2023/02/14 03:34:56;;;;;;;;;;;;;;;0.80;100.00;-18048.91;4986621;28;20086;-82
2023/02/14 03:37:34;;;;;;;;;;;;;;;0.83;100.00;-18049.75;4987631;28;19929;-82
2023/02/14 03:40:12;;;;;;;;;;;;;;;0.80;100.00;-18048.91;4985816;28;20016;-82
2023/02/14 03:42:44;;;;;;;;;;;;;;;0.85;100.00;-18050.31;4983356;28;19926;-83
2023/02/14 03:45:12;;;;;;;;;;;;;;;0.80;100.00;-18048.91;4989322;28;20391;-82
2023/02/14 03:47:39;;;;;;;;;;;;;;;0.78;100.00;-18048.38;4988388;28;19961;-82
2023/02/14 03:50:14;;;;;;;;;;;;;;;0.84;100.00;-18050.03;4991018;28;19933;-82
2023/02/14 03:52:40;;;;;;;;;;;;;;;0.79;100.00;-18048.66;4986100;28;19922;-82
2023/02/14 03:55:06;;;;;;;;;;;;;;;0.76;100.00;-18047.81;5001554;28;20454;-82
2023/02/14 03:58:10;;;;;;;;;;;;;;;0.76;100.00;-18047.81;4992504;28;20300;-83
2023/02/14 04:00:37;;;;;;;;;;;;;;;0.77;100.00;-18048.22;4954813;28;20029;-83
2023/02/14 04:03:04;;;;;;;;;;;;;;;0.80;100.00;-18048.91;4956443;28;20017;-83
2023/02/14 04:05:30;;;;;;;;;;;;;;;0.74;100.00;-18047.41;4971362;28;19926;-82
2023/02/14 04:07:57;;;;;;;;;;;;;;;0.69;100.00;-18046.00;4990862;28;19949;-82
2023/02/14 04:10:23;;;;;;;;;;;;;;;0.65;100.00;-18044.91;4995967;28;20013;-82
2023/02/14 04:12:48;;;;;;;;;;;;;;;0.63;100.00;-18044.34;4990259;28;19977;-83
2023/02/14 04:15:13;;;;;;;;;;;;;;;0.67;100.00;-18045.59;4995269;28;19928;-82
2023/02/14 04:20:23;;;;;;;;;;;;;;;0.70;100.00;-18046.28;5001105;28;19972;-83
2023/02/14 04:22:50;;;;;;;;;;;;;;;0.73;100.00;-18046.97;4991882;28;19961;-82
2023/02/14 04:25:15;;;;;;;;;;;;;;;0.70;100.00;-18046.28;4997189;28;19956;-83
2023/02/14 04:27:40;;;;;;;;;;;;;;;0.68;100.00;-18045.88;4992550;28;20375;-81
2023/02/14 04:30:06;;;;;;;;;;;;;;;0.70;100.00;-18046.16;4991123;28;20061;-82
2023/02/14 04:32:31;;;;;;;;;;;;;;;0.68;100.00;-18045.72;4989679;28;19922;-83
2023/02/14 04:34:57;;;;;;;;;;;;;;;0.70;100.00;-18046.16;4996554;28;19922;-82
2023/02/14 04:37:22;;;;;;;;;;;;;;;0.69;100.00;-18046.00;4989985;28;19929;-81
2023/02/14 04:39:47;;;;;;;;;;;;;;;0.68;100.00;-18045.88;4991265;28;19922;-81
2023/02/14 04:42:13;;;;;;;;;;;;;;;0.67;100.00;-18045.59;4994578;28;19976;-81
2023/02/14 04:44:38;;;;;;;;;;;;;;;0.66;100.00;-18045.31;4986431;28;20411;-83
2023/02/14 04:47:04;;;;;;;;;;;;;;;0.61;100.00;-18043.78;4983350;28;19922;-82
2023/02/14 04:49:29;;;;;;;;;;;;;;;0.59;100.00;-18043.25;4991521;28;19976;-82
2023/02/14 04:51:54;;;;;;;;;;;;;;;0.59;100.00;-18043.38;4989549;28;20012;-81
2023/02/14 04:54:20;;;;;;;;;;;;;;;0.61;100.00;-18043.78;4996256;28;20296;-82
2023/02/14 04:56:45;;;;;;;;;;;;;;;0.60;100.00;-18043.66;4987456;28;19921;-82
2023/02/14 04:59:10;;;;;;;;;;;;;;;0.64;100.00;-18044.75;4996264;28;20371;-82
2023/02/14 05:01:36;;;;;;;;;;;;;;;0.65;100.00;-18045.03;4992345;28;19922;-82
2023/02/14 05:04:01;;;;;;;;;;;;;;;0.66;100.00;-18045.31;5002025;28;19967;-81
2023/02/14 05:06:27;;;;;;;;;;;;;;;0.62;100.00;-18044.22;5012185;28;19918;-81
2023/02/14 05:08:53;;;;;;;;;;;;;;;0.64;100.00;-18044.63;5010261;28;20702;-82
2023/02/14 05:11:18;;;;;;;;;;;;;;;0.65;100.00;-18045.03;5001973;28;20020;-82
2023/02/14 05:13:43;;;;;;;;;;;;;;;0.64;100.00;-18044.63;4996217;28;20012;-81
2023/02/14 05:16:08;;;;;;;;;;;;;;;0.66;100.00;-18045.19;4994873;28;19987;-82
2023/02/14 05:18:33;;;;;;;;;;;;;;;0.67;100.00;-18045.59;4991672;28;19929;-81
2023/02/14 05:20:59;;;;;;;;;;;;;;;0.67;100.00;-18045.59;4987164;28;20402;-82
2023/02/14 05:23:24;;;;;;;;;;;;;;;0.68;100.00;-18045.88;4999755;28;19922;-82
2023/02/14 05:25:50;;;;;;;;;;;;;;;0.68;100.00;-18045.88;4993757;28;19969;-82
2023/02/14 05:28:16;;;;;;;;;;;;;;;0.68;100.00;-18045.72;4994107;28;20420;-82
2023/02/14 05:30:41;;;;;;;;;;;;;;;0.56;100.00;-18042.53;4991042;28;19929;-82
2023/02/14 05:33:06;;;;;;;;;;;;;;;0.54;100.00;-18042.00;4992195;28;20003;-82
2023/02/14 05:35:32;;;;;;;;;;;;;;;0.48;100.00;-18040.34;4990557;28;19926;-80
2023/02/14 05:37:57;;;;;;;;;;;;;;;0.48;100.00;-18040.34;4993794;28;19976;-81
2023/02/14 05:40:22;;;;;;;;;;;;;;;0.47;100.00;-18039.91;4989666;28;19957;-81
2023/02/14 05:42:47;;;;;;;;;;;;;;;0.47;100.00;-18039.91;4990127;28;19968;-81
2023/02/14 05:45:13;;;;;;;;;;;;;;;0.43;100.00;-18039.09;4992633;28;19929;-81
2023/02/14 05:47:38;;;;;;;;;;;;;;;0.43;100.00;-18038.94;4990426;28;19968;-82
2023/02/14 05:50:04;;;;;;;;;;;;;;;0.45;100.00;-18039.50;4988977;28;20388;-81
2023/02/14 05:52:29;;;;;;;;;;;;;;;0.43;100.00;-18039.09;4986268;28;20658;-82
2023/02/14 05:54:54;;;;;;;;;;;;;;;0.43;100.00;-18039.09;4996556;28;20000;-82
2023/02/14 05:57:20;;;;;;;;;;;;;;;0.44;100.00;-18039.22;4988155;28;19978;-80
2023/02/14 05:59:45;;;;;;;;;;;;;;;0.40;100.00;-18038.25;4992829;28;20119;-82
2023/02/14 06:02:10;;;;;;;;;;;;;;;0.43;100.00;-18038.94;4987803;28;19980;-81
2023/02/14 06:04:35;;;;;;;;;;;;;;;0.37;100.00;-18037.28;4989829;28;19933;-80
2023/02/14 06:07:01;;;;;;;;;;;;;;;0.33;100.00;-18036.19;4985036;28;20008;-80
2023/02/14 06:09:26;;;;;;;;;;;;;;;0.26;100.00;-18034.22;4987956;28;20509;-81
2023/02/14 06:11:51;;;;;;;;;;;;;;;0.22;100.00;-18033.41;4992061;28;19979;-83
2023/02/14 06:14:17;;;;;;;;;;;;;;;0.24;100.00;-18033.69;4995625;28;19925;-81
2023/02/14 06:16:42;;;;;;;;;;;;;;;0.27;100.00;-18034.50;4994798;28;19921;-80
2023/02/14 06:19:07;;;;;;;;;;;;;;;0.29;100.00;-18035.22;4991671;28;20438;-81
2023/02/14 06:21:33;;;;;;;;;;;;;;;0.24;100.00;-18033.81;4992189;28;19922;-80
2023/02/14 06:23:59;;;;;;;;;;;;;;;0.19;100.00;-18032.56;4987218;28;19971;-81
2023/02/14 06:26:26;;;;;;;;;;;;;;;0.18;100.00;-18032.31;4991965;28;19922;-82
2023/02/14 06:28:55;;;;;;;;;;;;;;;0.15;100.00;-18031.34;4993157;28;19976;-80
2023/02/14 06:31:21;;;;;;;;;;;;;;;0.16;100.00;-18031.59;4989191;28;19926;-83
2023/02/14 06:33:46;;;;;;;;;;;;;;;0.20;100.00;-18032.72;4990048;28;19926;-82
2023/02/14 06:36:11;;;;;;;;;;;;;;;0.18;100.00;-18032.31;4989607;28;19930;-81
2023/02/14 06:38:37;;;;;;;;;;;;;;;0.15;100.00;-18031.47;4990266;28;20004;-81
2023/02/14 06:41:03;;;;;;;;;;;;;;;0.16;100.00;-18031.59;4982923;28;20561;-81
2023/02/14 06:43:28;;;;;;;;;;;;;;;0.20;100.00;-18032.84;4984776;28;19930;-80
2023/02/14 06:45:53;;;;;;;;;;;;;;;0.17;100.00;-18032.03;4984808;28;19949;-82
2023/02/14 06:48:19;;;;;;;;;;;;;;;0.13;100.00;-18030.78;4983898;28;20029;-81
2023/02/14 06:50:45;;;;;;;;;;;;;;;0.10;100.00;-18030.09;4978821;28;19929;-81
2023/02/14 06:53:10;;;;;;;;;;;;;;;0.10;100.00;-18030.09;4981382;28;20020;-80
2023/02/14 06:55:35;;;;;;;;;;;;;;;0.08;100.00;-18029.53;4989144;28;20628;-82
2023/02/14 06:58:01;;;;;;;;;;;;;;;0.07;100.00;-18029.25;4986237;28;19976;-80
2023/02/14 07:00:26;;;;;;;;;;;;;;;0.07;100.00;-18029.25;4988756;28;20045;-82
2023/02/14 07:02:51;;;;;;;;;;;;;;;0.07;100.00;-18029.25;4987002;28;20410;-81
2023/02/14 07:05:17;;;;;;;;;;;;;;;0.05;100.00;-18028.56;4980712;28;19929;-83
2023/02/14 07:07:43;;;;;;;;;;;;;;;0.02;100.00;-18027.88;4984443;28;19925;-81
2023/02/14 07:10:08;;;;;;;;;;;;;;;0.01;100.00;-18027.59;4986044;28;19930;-83
2023/02/14 07:12:33;;;;;;;;;;;;;;;-0.01;100.00;-18027.16;4988442;28;19922;-82
2023/02/14 07:14:59;;;;;;;;;;;;;;;0.02;100.00;-18027.88;4973988;28;19941;-80
2023/02/14 07:17:24;;;;;;;;;;;;;;;0.02;100.00;-18027.72;4969387;28;20804;-83
2023/02/14 07:19:49;;;;;;;;;;;;;;;0.03;100.00;-18028.16;4987547;28;19922;-81
2023/02/14 07:22:14;;;;;;;;;;;;;;;0.06;100.00;-18028.84;4985502;28;19921;-82
2023/02/14 07:24:40;;;;;;;;;;;;;;;0.05;100.00;-18028.69;4985890;28;19926;-82
2023/02/14 07:27:06;;;;;;;;;;;;;;;0.09;100.00;-18029.66;4981916;28;19918;-81
2023/02/14 07:29:31;;;;;;;;;;;;;;;0.11;100.00;-18030.34;4989073;28;20427;-82
2023/02/14 07:31:56;;;;;;;;;;;;;;;0.16;100.00;-18031.75;4993140;28;19976;-82
2023/02/14 07:34:21;;;;;;;;;;;;;;;0.18;100.00;-18032.16;4990447;28;20008;-84
2023/02/14 07:36:47;;;;;;;;;;;;;;;0.22;100.00;-18033.28;4987173;28;19981;-83
2023/02/14 07:39:12;;;;;;;;;;;;;;;0.26;100.00;-18034.22;4989459;28;19917;-82
2023/02/14 07:41:37;;;;;;;;;;;;;;;0.31;100.00;-18035.63;4990558;28;19918;-82
2023/02/14 07:44:03;;;;;;;;;;;;;;;0.41;100.00;-18038.53;4989557;28;20001;-82
2023/02/14 07:46:28;;;;;;;;;;;;;;;0.52;100.00;-18041.44;4976107;28;19933;-82
2023/02/14 07:48:53;;;;;;;;;;;;;;;0.57;100.00;-18042.81;4989286;28;19925;-83
2023/02/14 07:51:19;;;;;;;;;;;;;;;0.68;100.00;-18045.88;4987115;28;20509;-82
2023/02/14 07:53:44;;;;;;;;;;;;;;;0.73;100.00;-18046.97;4979586;28;19922;-83
2023/02/14 07:56:09;;;;;;;;;;;;;;;0.85;100.00;-18050.31;4997332;28;19917;-83
2023/02/14 07:58:35;;;;;;;;;;;;;;;0.96;100.00;-18053.22;4989853;28;19942;-81
2023/02/14 08:01:00;;;;;;;;;;;;;;;1.10;100.00;-18057.22;4982105;28;19924;-83
2023/02/14 08:03:25;;;;;;;;;;;;;;;1.29;100.00;-18062.22;4979890;28;19929;-82
2023/02/14 08:05:56;;;;;;;;;;;;;;;1.39;100.00;-18064.97;4983159;28;19925;-84
2023/02/14 08:08:26;;;;;;;;;;;;;;;1.54;100.00;-18069.13;4984661;28;19929;-82
2023/02/14 08:10:51;;;;;;;;;;;;;;;1.70;100.00;-18073.28;4978042;28;19926;-83
2023/02/14 08:13:17;;;;;;;;;;;;;;;1.78;100.00;-18075.50;4991612;28;20494;-84
2023/02/14 08:16:15;;;;;;;;;;;;;;;1.92;100.00;-18079.38;4989520;28;19925;-81
2023/02/14 08:18:38;;;;;;;;;;;;;;;2.09;100.00;-18083.81;4973445;28;19918;-82
2023/02/14 08:21:04;;;;;;;;;;;;;;;2.21;100.00;-18087.25;4994243;28;20530;-82
2023/02/14 08:23:30;;;;;;;;;;;;;;;2.32;100.00;-18090.16;4990855;28;19918;-82
2023/02/14 08:25:55;;;;;;;;;;;;;;;2.46;100.00;-18093.91;4981533;28;19956;-83
2023/02/14 08:28:21;;;;;;;;;;;;;;;2.56;100.00;-18096.53;4974975;28;19929;-82
2023/02/14 08:30:46;;;;;;;;;;;;;;;2.67;100.00;-18099.56;4992236;28;19921;-82
2023/02/14 08:33:12;;;;;;;;;;;;;;;2.77;100.00;-18102.19;4989284;28;19925;-82
2023/02/14 08:35:37;;;;;;;;;;;;;;;2.84;100.00;-18104.25;4979345;28;20213;-82
2023/02/14 08:38:03;;;;;;;;;;;;;;;2.91;100.00;-18106.19;4992850;28;19996;-81
2023/02/14 08:40:28;;;;;;;;;;;;;;;3.00;100.00;-18108.56;4992953;28;20026;-81
2023/02/14 08:42:53;;;;;;;;;;;;;;;3.08;100.00;-18110.63;4992439;28;19976;-81
2023/02/14 08:45:19;;;;;;;;;;;;;;;3.16;100.00;-18112.84;4992857;28;19926;-81
2023/02/14 08:47:44;;;;;;;;;;;;;;;3.25;100.00;-18115.31;4991681;28;19918;-82
2023/02/14 08:50:11;;;;;;;;;;;;;;;3.31;100.00;-18117.00;4984367;28;19918;-81
2023/02/14 08:52:37;;;;;;;;;;;;;;;3.39;100.00;-18119.06;4986706;28;19942;-82
2023/02/14 08:55:04;;;;;;;;;;;;;;;3.47;100.00;-18121.28;4983162;28;19928;-81
2023/02/14 08:57:29;;;;;;;;;;;;;;;3.56;100.00;-18123.75;4992690;28;20391;-82
2023/02/14 08:59:54;;;;;;;;;;;;;;;3.70;100.00;-18127.50;4989254;28;19925;-82
2023/02/14 09:02:19;;;;;;;;;;;;;;;3.79;100.00;-18129.97;4979868;28;19918;-82
2023/02/14 09:04:45;;;;;;;;;;;;;;;3.89;100.00;-18132.47;4984878;28;19994;-81
2023/02/14 09:07:11;;;;;;;;;;;;;;;3.95;100.00;-18134.25;4987483;28;19918;-82
2023/02/14 09:09:36;;;;;;;;;;;;;;;4.06;100.00;-18137.16;4994799;28;19922;-82
2023/02/14 09:12:05;;;;;;;;;;;;;;;4.15;100.00;-18139.66;4994039;28;20410;-81
2023/02/14 09:14:38;;;;;;;;;;;;;;;4.25;100.00;-18142.28;4991626;28;20384;-82
2023/02/14 09:17:04;;;;;;;;;;;;;;;4.37;100.00;-18145.44;4987482;28;19933;-82
2023/02/14 09:19:33;;;;;;;;;;;;;;;4.48;100.00;-18148.47;4992769;28;19926;-82
2023/02/14 09:21:59;;;;;;;;;;;;;;;4.58;100.00;-18151.25;4991371;28;19930;-84
2023/02/14 09:24:26;;;;;;;;;;;;;;;4.63;100.00;-18152.50;4993318;28;20034;-82
2023/02/14 09:26:51;;;;;;;;;;;;;;;4.74;100.00;-18155.53;4995463;28;19921;-83
2023/02/14 09:29:17;;;;;;;;;;;;;;;4.81;100.00;-18157.31;4989325;28;19932;-83
2023/02/14 09:31:42;;;;;;;;;;;;;;;4.86;100.00;-18158.69;4993215;28;20001;-83
2023/02/14 09:34:07;;;;;;;;;;;;;;;4.92;100.00;-18160.34;4992843;28;19921;-84
2023/02/14 09:36:33;;;;;;;;;;;;;;;5.01;100.00;-18162.84;4991460;28;19929;-83
2023/02/14 09:38:58;;;;;;;;;;;;;;;5.11;100.00;-18165.47;4987394;28;20395;-82
2023/02/14 09:41:29;;;;;;;;;;;;;;;5.18;100.00;-18167.53;5018781;28;19944;-83
2023/02/14 09:43:55;;;;;;;;;;;;;;;5.28;100.00;-18170.03;4989251;28;20417;-83
2023/02/14 09:46:21;;;;;;;;;;;;;;;5.34;100.00;-18171.81;4995393;28;19926;-84
2023/02/14 09:48:47;;;;;;;;;;;;;;;5.41;100.00;-18173.75;4993583;28;19933;-83
2023/02/14 09:51:24;;;;;;;;;;;;;;;5.47;100.00;-18175.25;4999485;28;19922;-83
2023/02/14 09:53:51;;;;;;;;;;;;;;;5.56;100.00;-18177.75;4993753;28;19925;-83
2023/02/14 09:56:25;;;;;;;;;;;;;;;5.64;100.00;-18179.97;4996636;28;19971;-83
2023/02/14 09:58:54;;;;;;;;;;;;;;;5.79;100.00;-18183.81;4999708;28;19984;-84
2023/02/14 10:01:29;;;;;;;;;;;;;;;5.85;100.00;-18185.63;4997615;28;19928;-83
2023/02/14 10:04:00;;;;;;;;;;;;;;;5.91;100.00;-18187.13;4997342;28;19921;-82
2023/02/14 10:06:35;;;;;;;;;;;;;;;6.03;100.00;-18190.44;4997041;28;20317;-83
2023/02/14 10:09:19;;;;;;;;;;;;;;;6.13;100.00;-18192.94;4996958;28;19940;-84
2023/02/14 10:11:46;;;;;;;;;;;;;;;6.25;100.00;-18196.25;5005091;28;19929;-82
2023/02/14 10:14:11;;;;;;;;;;;;;;;6.30;100.00;-18197.63;5013922;28;19935;-82
2023/02/14 10:16:39;;;;;;;;;;;;;;;6.33;100.00;-18198.59;5019760;28;19926;-83
2023/02/14 10:19:06;;;;;;;;;;;;;;;6.42;100.00;-18200.78;5010710;28;19925;-82
2023/02/14 10:21:50;;;;;;;;;;;;;;;6.54;100.00;-18204.09;5010471;28;19922;-82
2023/02/14 10:24:15;;;;;;;;;;;;;;;6.65;100.00;-18207.13;4988716;28;20004;-83
2023/02/14 10:26:40;;;;;;;;;;;;;;;6.74;100.00;-18209.59;4991747;28;20007;-82
2023/02/14 10:29:13;;;;;;;;;;;;;;;6.80;100.00;-18211.13;4992400;28;20008;-82
2023/02/14 10:31:43;;;;;;;;;;;;;;;6.87;100.00;-18213.06;4989601;28;20473;-83
2023/02/14 10:34:23;;;;;;;;;;;;;;;6.96;100.00;-18215.41;4993319;28;19942;-84
2023/02/14 10:37:14;;;;;;;;;;;;;;;7.09;100.00;-18218.84;4988864;28;19922;-82
2023/02/14 10:39:46;;;;;;;;;;;;;;;7.18;100.00;-18221.31;4975034;28;19922;-83
2023/02/14 10:42:44;;;;;;;;;;;;;;;7.27;100.00;-18223.81;4997153;28;19930;-84
2023/02/14 10:45:32;;;;;;;;;;;;;;;7.34;100.00;-18225.72;4970796;28;19937;-84
2023/02/14 10:47:57;;;;;;;;;;;;;;;7.42;100.00;-18227.94;5001003;28;19933;-84
2023/02/14 10:50:22;;;;;;;;;;;;;;;7.45;100.00;-18228.75;4990882;28;19922;-83
2023/02/14 10:52:57;;;;;;;;;;;;;;;7.53;100.00;-18230.81;4989323;28;19933;-83
2023/02/14 10:55:46;;;;;;;;;;;;;;;7.67;100.00;-18234.56;4988545;28;19961;-83
2023/02/14 10:58:13;;;;;;;;;;;;;;;7.75;100.00;-18236.63;4997629;28;20300;-84
2023/02/14 11:00:45;;;;;;;;;;;;;;;7.86;100.00;-18239.66;4992909;28;20494;-83
2023/02/14 11:03:11;;;;;;;;;;;;;;;7.93;100.00;-18241.44;4990631;28;19926;-83
2023/02/14 11:05:39;;;;;;;;;;;;;;;8.05;100.00;-18244.75;5000112;28;19929;-83
2023/02/14 11:08:18;;;;;;;;;;;;;;;8.07;100.00;-18245.28;4988363;28;19921;-84
2023/02/14 11:10:44;;;;;;;;;;;;;;;8.13;100.00;-18247.09;4995984;28;19994;-84
2023/02/14 11:13:29;;;;;;;;;;;;;;;8.23;100.00;-18249.56;5002934;28;20435;-83
2023/02/14 11:15:57;;;;;;;;;;;;;;;8.27;100.00;-18250.66;4995596;28;19922;-84
2023/02/14 11:18:23;;;;;;;;;;;;;;;8.36;100.00;-18253.28;4992642;28;19926;-83
2023/02/14 11:20:58;;;;;;;;;;;;;;;8.49;100.00;-18256.59;4996597;28;19921;-84
2023/02/14 11:23:23;;;;;;;;;;;;;;;8.54;100.00;-18257.97;5015068;28;19922;-83
2023/02/14 11:25:50;;;;;;;;;;;;;;;8.61;100.00;-18259.75;4989980;28;19926;-83
2023/02/14 11:28:17;;;;;;;;;;;;;;;8.64;100.00;-18260.72;4999663;28;19947;-84
2023/02/14 11:30:45;;;;;;;;;;;;;;;8.68;100.00;-18261.81;4997005;28;19928;-83
2023/02/14 11:33:49;;;;;;;;;;;;;;;8.76;100.00;-18264.00;4988335;28;20494;-84
2023/02/14 11:36:16;;;;;;;;;;;;;;;8.93;100.00;-18268.41;4967106;28;20430;-83
2023/02/14 11:38:42;;;;;;;;;;;;;;;9.07;100.00;-18272.28;4986871;28;19930;-83
2023/02/14 11:41:09;;;;;;;;;;;;;;;9.16;100.00;-18274.75;4997270;28;19922;-83
2023/02/14 11:43:36;;;;;;;;;;;;;;;9.23;100.00;-18276.66;4996309;28;19922;-83
2023/02/14 11:46:13;;;;;;;;;;;;;;;9.29;100.00;-18278.06;4986773;28;20416;-84
2023/02/14 11:48:38;;;;;;;;;;;;;;;9.31;100.00;-18278.59;4995611;28;19921;-83
2023/02/14 11:51:04;;;;;;;;;;;;;;;9.33;100.00;-18279.28;4989539;28;19936;-83
2023/02/14 11:53:37;;;;;;;;;;;;;;;9.44;100.00;-18282.19;4996610;28;19932;-83
2023/02/14 11:56:03;;;;;;;;;;;;;;;9.54;100.00;-18284.94;4987815;28;19924;-83
2023/02/14 11:58:31;;;;;;;;;;;;;;;9.62;100.00;-18287.13;4991938;28;19988;-83
2023/02/14 12:00:56;;;;;;;;;;;;;;;9.71;100.00;-18289.47;4996694;28;19922;-84
2023/02/14 12:03:22;;;;;;;;;;;;;;;9.81;100.00;-18292.06;4983645;28;20399;-83
2023/02/14 12:05:49;;;;;;;;;;;;;;;9.90;100.00;-18294.56;4994107;28;20561;-83
2023/02/14 12:08:22;;;;;;;;;;;;;;;9.91;100.00;-18294.81;4981733;28;19928;-83
2023/02/14 12:10:59;;;;;;;;;;;;;;;10.03;100.00;-18298.13;4984479;28;19957;-83
2023/02/14 12:13:25;;;;;;;;;;;;;;;10.15;100.00;-18301.41;4995270;28;19949;-82
2023/02/14 12:15:54;;;;;;;;;;;;;;;10.25;100.00;-18303.91;4990862;28;20311;-83
2023/02/14 12:18:28;;;;;;;;;;;;;;;10.34;100.00;-18306.50;4997114;28;20371;-83
2023/02/14 12:20:59;;;;;;;;;;;;;;;10.42;100.00;-18308.44;4994412;28;19946;-83
2023/02/14 12:23:33;;;;;;;;;;;;;;;10.54;100.00;-18311.75;4990265;28;19921;-83
2023/02/14 12:26:01;;;;;;;;;;;;;;;10.67;100.00;-18315.31;4992492;28;19934;-83
2023/02/14 12:28:37;;;;;;;;;;;;;;;10.76;100.00;-18317.78;4995850;28;19944;-83
2023/02/14 12:31:02;;;;;;;;;;;;;;;10.81;100.00;-18319.00;4990602;28;19922;-83
2023/02/14 12:33:27;;;;;;;;;;;;;;;10.96;100.00;-18323.00;4998405;28;20401;-83
2023/02/14 12:35:53;;;;;;;;;;;;;;;11.06;100.00;-18325.75;4988606;28;20299;-83
2023/02/14 12:38:40;;;;;;;;;;;;;;;11.10;100.00;-18326.72;4994924;28;19945;-83
2023/02/14 12:41:15;;;;;;;;;;;;;;;11.21;100.00;-18329.72;4990700;28;20412;-83
2023/02/14 12:43:43;;;;;;;;;;;;;;;11.32;100.00;-18332.75;4990648;28;19996;-83
2023/02/14 12:46:14;;;;;;;;;;;;;;;11.42;100.00;-18335.50;4987663;28;19987;-84
2023/02/14 12:48:52;;;;;;;;;;;;;;;11.56;100.00;-18339.19;4988327;28;20370;-83
2023/02/14 12:51:22;;;;;;;;;;;;;;;11.63;100.00;-18341.00;4986153;28;19929;-83
2023/02/14 12:53:53;;;;;;;;;;;;;;;11.67;100.00;-18342.22;4996080;28;19933;-83
2023/02/14 12:56:37;;;;;;;;;;;;;;;11.81;100.00;-18345.94;4985064;28;19938;-83